Time;durP1;ratioP1;P1;durP2;ratioP2;P2;SDS_P1;SDS_P2;PMS_P1;PMS_P2;Temp;Humidity;BMP_temperature;BMP_pressure;BME280_temperature;BME280_humidity;BME280_pressure;Samples;Min_cycle;Max_cycle;Signal;HPM_P1;HPM_P2
2021/04/30 00:00:39;;;;;;;;;;;;;;;16.47;68.02;99071.12;1782511;79;37773;-81
2021/04/30 00:03:05;;;;;;;;;;;;;;;16.10;69.08;99096.36;1782720;79;20230;-82
2021/04/30 00:05:32;;;;;;;;;;;;;;;16.05;71.30;99118.02;1785483;79;21205;-79
2021/04/30 00:07:58;;;;;;;;;;;;;;;15.83;72.71;99123.70;1746634;79;20288;-84
2021/04/30 00:10:24;;;;;;;;;;;;;;;15.37;76.40;99144.23;1790266;78;20617;-82
2021/04/30 00:12:51;;;;;;;;;;;;;;;15.03;78.70;99121.47;1786994;79;20250;-84
2021/04/30 00:15:19;;;;;;;;;;;;;;;14.89;80.43;99102.89;1774289;79;20276;-82
2021/04/30 00:17:44;;;;;;;;;;;;;;;14.88;80.54;99103.94;1793350;78;21163;-85
2021/04/30 00:20:13;;;;;;;;;;;;;;;14.86;80.89;99093.20;1790754;78;21096;-89
2021/04/30 00:22:39;;;;;;;;;;;;;;;14.86;80.63;99092.69;1796651;78;20268;-81
2021/04/30 00:25:05;;;;;;;;;;;;;;;14.79;80.35;99092.41;1792170;79;20512;-82
2021/04/30 00:27:30;;;;;;;;;;;;;;;14.80;80.75;99094.05;1788953;79;20305;-84
2021/04/30 00:29:56;;;;;;;;;;;;;;;14.80;81.10;99092.72;1791199;78;21207;-81
2021/04/30 00:32:22;;;;;;;;;;;;;;;14.75;81.38;99089.36;1802354;78;21465;-81
2021/04/30 00:34:49;;;;;;;;;;;;;;;14.74;80.27;99086.39;1803524;78;20211;-91
2021/04/30 00:37:14;;;;;;;;;;;;;;;14.71;80.99;99088.14;1808613;78;20256;-88
2021/04/30 00:39:40;;;;;;;;;;;;;;;14.67;80.72;99083.77;1804401;78;20249;-80
2021/04/30 00:42:07;;;;;;;;;;;;;;;14.65;81.15;99085.82;1800550;78;21153;-81
2021/04/30 00:44:34;;;;;;;;;;;;;;;14.67;80.78;99093.06;1802962;78;20299;-80
2021/04/30 00:47:02;;;;;;;;;;;;;;;14.72;81.04;99086.59;1803121;78;20163;-81
2021/04/30 00:49:27;;;;;;;;;;;;;;;14.67;80.94;99091.73;1810195;78;20261;-80
2021/04/30 00:51:55;;;;;;;;;;;;;;;14.65;80.65;99083.16;1805524;78;20576;-81
2021/04/30 00:54:20;;;;;;;;;;;;;;;14.63;80.31;99078.55;1808325;78;20150;-85
2021/04/30 00:56:46;;;;;;;;;;;;;;;14.57;80.47;99078.02;1806187;78;20360;-81
2021/04/30 00:59:12;;;;;;;;;;;;;;;14.50;80.60;99085.21;1802908;78;20714;-81
2021/04/30 01:01:39;;;;;;;;;;;;;;;14.50;80.56;99097.17;1808641;78;20317;-81
2021/04/30 01:04:08;;;;;;;;;;;;;;;14.35;80.84;99098.20;1802928;78;20575;-83
2021/04/30 01:06:36;;;;;;;;;;;;;;;14.28;81.56;99098.73;1806978;78;20183;-80
2021/04/30 01:09:03;;;;;;;;;;;;;;;14.17;81.82;99107.33;1802386;78;20162;-80
2021/04/30 01:11:30;;;;;;;;;;;;;;;14.15;82.32;99098.73;1803653;78;20228;-80
2021/04/30 01:13:56;;;;;;;;;;;;;;;14.21;82.07;99100.57;1788192;78;20238;-84
2021/04/30 01:16:23;;;;;;;;;;;;;;;14.09;82.47;99110.17;1802126;78;20253;-81
2021/04/30 01:18:48;;;;;;;;;;;;;;;14.11;82.36;99110.80;1807062;78;21960;-81
2021/04/30 01:21:16;;;;;;;;;;;;;;;14.10;82.73;99117.13;1808944;78;20174;-82
2021/04/30 01:23:52;;;;;;;;;;;;;;;14.08;82.87;99107.23;1805959;78;20227;-80
2021/04/30 01:26:19;;;;;;;;;;;;;;;14.08;83.16;99101.40;1801864;78;20246;-80
2021/04/30 01:28:45;;;;;;;;;;;;;;;14.12;82.85;99092.50;1799825;78;20805;-81
2021/04/30 01:31:11;;;;;;;;;;;;;;;14.13;83.28;99092.82;1783146;78;21252;-80
2021/04/30 01:33:38;;;;;;;;;;;;;;;14.13;82.78;99102.11;1791611;78;20298;-83
2021/04/30 01:36:05;;;;;;;;;;;;;;;14.07;83.54;99106.91;1795525;78;20516;-82
2021/04/30 01:38:30;;;;;;;;;;;;;;;14.09;83.57;99108.36;1790257;78;20639;-81
2021/04/30 01:40:56;;;;;;;;;;;;;;;13.99;84.03;99122.02;1792182;78;20205;-81
2021/04/30 01:43:25;;;;;;;;;;;;;;;13.98;84.00;99120.40;1793047;78;21172;-82
2021/04/30 01:46:03;;;;;;;;;;;;;;;14.18;82.82;99108.94;1790465;78;20251;-81
2021/04/30 01:48:24;;;;;;;;;;;;;;;14.13;82.97;99111.41;1791412;78;20527;-80
2021/04/30 01:50:52;;;;;;;;;;;;;;;14.14;82.81;99102.43;1793096;78;20268;-81
2021/04/30 01:53:20;;;;;;;;;;;;;;;14.23;82.90;99113.15;1791041;78;20276;-80
2021/04/30 01:55:45;;;;;;;;;;;;;;;14.16;83.00;99117.11;1790143;78;21803;-82
2021/04/30 01:58:11;;;;;;;;;;;;;;;14.14;83.61;99122.34;1792106;78;21253;-84
2021/04/30 02:00:37;;;;;;;;;;;;;;;13.98;84.28;99127.03;1789466;78;20807;-81
2021/04/30 02:03:02;;;;;;;;;;;;;;;13.90;84.90;99123.23;1794537;78;20227;-81
2021/04/30 02:05:32;;;;;;;;;;;;;;;14.03;84.46;99122.45;1795328;78;20354;-81
2021/04/30 02:08:02;;;;;;;;;;;;;;;14.21;84.17;99124.47;1758948;80;22429;-82
2021/04/30 02:10:28;;;;;;;;;;;;;;;14.21;83.50;99115.69;1791313;78;20291;-80
2021/04/30 02:12:55;;;;;;;;;;;;;;;14.29;83.33;99118.97;1790631;78;20286;-83
2021/04/30 02:15:25;;;;;;;;;;;;;;;14.13;83.23;99136.62;1792012;78;20553;-82
2021/04/30 02:17:52;;;;;;;;;;;;;;;14.05;84.02;99127.55;1790990;78;20251;-82
2021/04/30 02:20:21;;;;;;;;;;;;;;;14.19;83.66;99131.83;1791851;78;20978;-82
2021/04/30 02:22:46;;;;;;;;;;;;;;;14.11;83.77;99131.52;1791179;78;20144;-82
2021/04/30 02:25:14;;;;;;;;;;;;;;;13.98;84.10;99117.75;1794540;78;20170;-82
2021/04/30 02:27:40;;;;;;;;;;;;;;;14.04;83.95;99121.41;1793615;78;20266;-82
2021/04/30 02:30:08;;;;;;;;;;;;;;;14.14;83.62;99128.98;1792802;78;20147;-81
2021/04/30 02:32:35;;;;;;;;;;;;;;;13.92;84.38;99130.99;1790705;78;20161;-82
2021/04/30 02:35:01;;;;;;;;;;;;;;;13.76;85.21;99128.23;1789931;78;20332;-80
2021/04/30 02:37:27;;;;;;;;;;;;;;;13.81;85.36;99124.45;1773692;78;20263;-81
2021/04/30 02:39:52;;;;;;;;;;;;;;;14.01;84.70;99128.45;1772241;78;20608;-82
2021/04/30 02:42:19;;;;;;;;;;;;;;;13.99;84.53;99132.63;1776025;78;20153;-82
2021/04/30 02:44:46;;;;;;;;;;;;;;;13.97;84.57;99141.31;1793754;78;21156;-84
2021/04/30 02:47:15;;;;;;;;;;;;;;;13.94;84.85;99134.28;1790022;78;20234;-81
2021/04/30 02:49:47;;;;;;;;;;;;;;;14.00;84.62;99142.23;1772722;78;20296;-82
2021/04/30 02:52:16;;;;;;;;;;;;;;;14.10;83.93;99137.03;1794647;78;20220;-82
2021/04/30 02:54:43;;;;;;;;;;;;;;;14.14;83.67;99135.62;1791894;78;20264;-81
2021/04/30 02:57:09;;;;;;;;;;;;;;;13.99;83.73;99135.80;1792818;78;21477;-82
2021/04/30 02:59:34;;;;;;;;;;;;;;;13.90;84.16;99141.81;1776675;78;20266;-81
2021/04/30 03:02:02;;;;;;;;;;;;;;;13.98;83.75;99139.47;1785805;79;20198;-82
2021/04/30 03:04:27;;;;;;;;;;;;;;;14.02;83.22;99141.23;1790350;78;20234;-81
2021/04/30 03:06:53;;;;;;;;;;;;;;;13.82;84.05;99141.49;1793460;78;20250;-81
2021/04/30 03:09:19;;;;;;;;;;;;;;;13.83;83.86;99146.31;1788642;78;22023;-82
2021/04/30 03:11:47;;;;;;;;;;;;;;;13.84;83.49;99141.30;1778439;78;20141;-81
2021/04/30 03:14:15;;;;;;;;;;;;;;;13.89;83.42;99133.56;1768859;78;20248;-84
2021/04/30 03:16:40;;;;;;;;;;;;;;;13.76;83.82;99142.30;1790728;78;20551;-81
2021/04/30 03:19:06;;;;;;;;;;;;;;;13.75;83.54;99123.44;1794727;78;20467;-81
2021/04/30 03:21:35;;;;;;;;;;;;;;;13.72;83.86;99126.98;1794450;78;21268;-81
2021/04/30 03:24:00;;;;;;;;;;;;;;;13.59;83.79;99127.27;1791870;78;20204;-82
2021/04/30 03:26:26;;;;;;;;;;;;;;;13.80;83.63;99133.45;1791221;78;20188;-81
2021/04/30 03:28:51;;;;;;;;;;;;;;;13.58;83.81;99131.45;1788899;78;20511;-81
2021/04/30 03:31:17;;;;;;;;;;;;;;;13.76;83.64;99137.52;1788048;78;20195;-82
2021/04/30 03:33:45;;;;;;;;;;;;;;;13.51;84.54;99143.38;1794273;79;21998;-84
2021/04/30 03:36:11;;;;;;;;;;;;;;;13.68;83.77;99137.19;1789982;79;20247;-82
2021/04/30 03:38:37;;;;;;;;;;;;;;;13.65;83.40;99142.38;1793018;78;20628;-82
2021/04/30 03:41:04;;;;;;;;;;;;;;;13.59;83.56;99143.19;1787548;79;20371;-81
2021/04/30 03:43:34;;;;;;;;;;;;;;;13.51;83.88;99150.01;1789941;79;20244;-81
2021/04/30 03:46:00;;;;;;;;;;;;;;;13.58;83.69;99159.30;1790956;78;20537;-81
2021/04/30 03:48:28;;;;;;;;;;;;;;;13.53;83.92;99167.89;1791663;78;20214;-82
2021/04/30 03:50:55;;;;;;;;;;;;;;;13.40;84.26;99175.27;1787647;79;20515;-81
2021/04/30 03:53:21;;;;;;;;;;;;;;;13.40;84.37;99181.09;1786708;79;20652;-81
2021/04/30 03:55:47;;;;;;;;;;;;;;;13.41;84.17;99188.05;1788372;79;20239;-82
2021/04/30 03:58:13;;;;;;;;;;;;;;;13.46;83.90;99185.60;1792038;79;21243;-81
2021/04/30 04:00:39;;;;;;;;;;;;;;;13.43;84.18;99186.80;1788281;78;20198;-81
2021/04/30 04:03:04;;;;;;;;;;;;;;;13.45;84.01;99191.91;1792025;79;20436;-84
2021/04/30 04:05:31;;;;;;;;;;;;;;;13.48;84.07;99199.99;1784751;79;20549;-82
2021/04/30 04:07:58;;;;;;;;;;;;;;;13.45;83.77;99203.84;1788331;79;20257;-83
2021/04/30 04:10:25;;;;;;;;;;;;;;;13.34;83.96;99201.25;1792870;78;21153;-82
2021/04/30 04:12:53;;;;;;;;;;;;;;;13.42;84.05;99197.61;1790622;79;20177;-82
2021/04/30 04:15:18;;;;;;;;;;;;;;;13.42;83.63;99202.91;1794378;79;20258;-80
2021/04/30 04:17:44;;;;;;;;;;;;;;;13.33;83.91;99206.72;1790432;79;20198;-84
2021/04/30 04:20:11;;;;;;;;;;;;;;;13.22;84.15;99209.42;1792197;78;20210;-80
2021/04/30 04:22:37;;;;;;;;;;;;;;;13.11;84.23;99212.12;1792353;79;21546;-83
2021/04/30 04:25:04;;;;;;;;;;;;;;;13.14;84.45;99214.38;1772259;79;21106;-81
2021/04/30 04:27:30;;;;;;;;;;;;;;;13.14;83.86;99218.88;1786782;78;20306;-87
2021/04/30 04:29:56;;;;;;;;;;;;;;;13.28;83.56;99217.91;1790390;78;20160;-80
2021/04/30 04:32:21;;;;;;;;;;;;;;;13.06;84.06;99225.95;1786221;80;20812;-81
2021/04/30 04:34:49;;;;;;;;;;;;;;;13.12;83.68;99225.69;1785502;79;21337;-81
2021/04/30 04:37:15;;;;;;;;;;;;;;;13.02;83.67;99227.87;1786900;80;20496;-81
2021/04/30 04:39:40;;;;;;;;;;;;;;;13.10;83.39;99223.76;1787211;79;20334;-82
2021/04/30 04:42:10;;;;;;;;;;;;;;;13.00;83.98;99233.88;1785204;79;20954;-81
2021/04/30 04:44:36;;;;;;;;;;;;;;;13.08;82.95;99234.55;1781263;80;20235;-81
2021/04/30 04:47:02;;;;;;;;;;;;;;;13.06;82.37;99234.42;1779584;80;21189;-84
2021/04/30 04:49:27;;;;;;;;;;;;;;;13.20;81.68;99232.16;1785902;79;20206;-83
2021/04/30 04:51:54;;;;;;;;;;;;;;;13.19;81.46;99233.19;1783667;80;20190;-84
2021/04/30 04:54:21;;;;;;;;;;;;;;;13.29;80.82;99232.30;1783580;80;20301;-82
2021/04/30 04:56:47;;;;;;;;;;;;;;;13.30;80.14;99229.16;1785289;79;20243;-83
2021/04/30 04:59:13;;;;;;;;;;;;;;;13.46;79.91;99238.64;1785498;79;21423;-82
2021/04/30 05:01:41;;;;;;;;;;;;;;;13.39;79.23;99241.77;1783805;79;20316;-82
2021/04/30 05:04:09;;;;;;;;;;;;;;;13.42;79.03;99245.34;1786588;79;20277;-82
2021/04/30 05:06:34;;;;;;;;;;;;;;;13.51;78.98;99240.70;1783339;80;20246;-82
2021/04/30 05:09:00;;;;;;;;;;;;;;;13.37;78.61;99253.08;1782136;79;20786;-81
2021/04/30 05:11:27;;;;;;;;;;;;;;;13.32;78.70;99256.30;1780772;80;22438;-82
2021/04/30 05:13:53;;;;;;;;;;;;;;;13.33;78.84;99267.70;1785605;80;20247;-83
2021/04/30 05:16:20;;;;;;;;;;;;;;;13.25;78.85;99250.96;1757810;80;20178;-83
2021/04/30 05:18:46;;;;;;;;;;;;;;;13.17;78.91;99261.70;1787352;79;20250;-84
2021/04/30 05:21:12;;;;;;;;;;;;;;;13.18;78.96;99263.35;1786122;79;20296;-82
2021/04/30 05:23:37;;;;;;;;;;;;;;;13.24;78.26;99278.48;1786416;79;21165;-82
2021/04/30 05:26:03;;;;;;;;;;;;;;;13.26;78.29;99270.33;1783924;80;20120;-82
2021/04/30 05:28:30;;;;;;;;;;;;;;;13.33;78.01;99266.38;1781380;80;20277;-82
2021/04/30 05:30:56;;;;;;;;;;;;;;;13.20;77.38;99277.22;1741165;79;20255;-80
2021/04/30 05:33:21;;;;;;;;;;;;;;;13.33;77.37;99263.73;1781471;79;20836;-81
2021/04/30 05:35:47;;;;;;;;;;;;;;;13.51;76.94;99270.69;1788034;78;21429;-79
2021/04/30 05:38:13;;;;;;;;;;;;;;;13.42;76.75;99283.31;1787021;78;20252;-79
2021/04/30 05:40:40;;;;;;;;;;;;;;;13.56;76.32;99274.89;1794770;78;20483;-80
2021/04/30 05:43:06;;;;;;;;;;;;;;;13.70;76.02;99267.00;1782636;79;20235;-84
2021/04/30 05:45:31;;;;;;;;;;;;;;;13.72;75.46;99286.18;1790793;79;20199;-90
2021/04/30 05:47:57;;;;;;;;;;;;;;;13.64;75.10;99284.03;1778683;79;22076;-80
2021/04/30 05:50:22;;;;;;;;;;;;;;;13.79;74.86;99279.08;1799821;78;20217;-79
2021/04/30 05:52:49;;;;;;;;;;;;;;;13.90;75.08;99282.47;1758137;79;20298;-80
2021/04/30 05:55:15;;;;;;;;;;;;;;;14.03;74.41;99286.19;1791839;79;20254;-81
2021/04/30 05:57:41;;;;;;;;;;;;;;;14.00;73.79;99286.09;1794070;79;20183;-80
2021/04/30 06:00:09;;;;;;;;;;;;;;;14.14;73.35;99283.78;1795937;78;21139;-80
2021/04/30 06:02:36;;;;;;;;;;;;;;;14.02;73.29;99288.03;1791015;78;20250;-80
2021/04/30 06:05:02;;;;;;;;;;;;;;;14.16;72.87;99286.23;1800664;78;20176;-83
2021/04/30 06:07:30;;;;;;;;;;;;;;;14.23;72.67;99291.55;1800820;78;20279;-82
2021/04/30 06:09:55;;;;;;;;;;;;;;;14.08;72.28;99294.39;1793848;78;20246;-84
2021/04/30 06:12:24;;;;;;;;;;;;;;;14.21;71.10;99297.06;1792077;78;21275;-81
2021/04/30 06:14:50;;;;;;;;;;;;;;;14.13;71.56;99298.58;1790072;78;20281;-80
2021/04/30 06:17:18;;;;;;;;;;;;;;;14.44;70.12;99306.52;1794514;78;20180;-79
2021/04/30 06:19:45;;;;;;;;;;;;;;;14.57;69.75;99299.87;1786020;78;20213;-86
2021/04/30 06:22:11;;;;;;;;;;;;;;;14.54;67.48;99301.61;1786268;78;20242;-81
2021/04/30 06:24:37;;;;;;;;;;;;;;;14.63;68.17;99303.08;1785208;78;21375;-81
2021/04/30 06:27:03;;;;;;;;;;;;;;;14.66;67.94;99312.49;1795793;79;20220;-81
2021/04/30 06:29:30;;;;;;;;;;;;;;;14.78;66.59;99315.37;1767870;79;20199;-82
2021/04/30 06:31:56;;;;;;;;;;;;;;;14.79;66.83;99310.34;1793145;78;20260;-85
2021/04/30 06:34:22;;;;;;;;;;;;;;;15.00;66.76;99315.45;1793975;78;20242;-80
2021/04/30 06:36:48;;;;;;;;;;;;;;;14.92;65.45;99310.35;1794195;78;21175;-81
2021/04/30 06:39:16;;;;;;;;;;;;;;;15.04;64.62;99310.04;1791414;78;20257;-80
2021/04/30 06:41:43;;;;;;;;;;;;;;;14.89;64.71;99312.09;1792082;78;20195;-80
2021/04/30 06:44:09;;;;;;;;;;;;;;;15.10;64.55;99318.20;1791938;78;20261;-80
2021/04/30 06:46:35;;;;;;;;;;;;;;;15.18;63.28;99316.66;1794205;78;20231;-87
2021/04/30 06:49:02;;;;;;;;;;;;;;;14.95;63.11;99316.59;1793268;78;21277;-82
2021/04/30 06:51:29;;;;;;;;;;;;;;;15.19;61.97;99315.64;1796810;78;20252;-79
2021/04/30 06:53:54;;;;;;;;;;;;;;;15.23;62.38;99320.86;1789970;78;20214;-81
2021/04/30 06:56:25;;;;;;;;;;;;;;;15.39;62.20;99321.73;1794129;78;20217;-85
2021/04/30 06:58:49;;;;;;;;;;;;;;;15.35;60.81;99329.84;1793666;78;20566;-84
2021/04/30 07:01:16;;;;;;;;;;;;;;;15.38;60.53;99323.27;1788876;78;21288;-83
2021/04/30 07:03:46;;;;;;;;;;;;;;;15.36;59.01;99323.48;1792088;78;20178;-79
2021/04/30 07:06:12;;;;;;;;;;;;;;;15.36;59.80;99330.66;1790308;78;20376;-82
2021/04/30 07:08:40;;;;;;;;;;;;;;;15.28;57.44;99329.55;1791604;78;20325;-82
2021/04/30 07:11:07;;;;;;;;;;;;;;;15.54;57.29;99316.70;1789328;78;20280;-81
2021/04/30 07:13:35;;;;;;;;;;;;;;;15.68;56.39;99318.29;1789093;78;21177;-79
2021/04/30 07:16:01;;;;;;;;;;;;;;;15.60;54.89;99333.98;1791531;78;20271;-85
2021/04/30 07:18:27;;;;;;;;;;;;;;;15.61;55.18;99332.96;1791512;78;20281;-79
2021/04/30 07:20:53;;;;;;;;;;;;;;;15.76;55.09;99333.22;1790445;78;20301;-82
2021/04/30 07:23:20;;;;;;;;;;;;;;;15.75;55.58;99345.72;1791805;78;20173;-80
2021/04/30 07:25:48;;;;;;;;;;;;;;;15.70;55.64;99339.38;1789130;78;22374;-80
2021/04/30 07:28:14;;;;;;;;;;;;;;;15.68;55.61;99343.58;1792795;78;20813;-79
2021/04/30 07:30:40;;;;;;;;;;;;;;;15.73;55.24;99347.75;1792276;78;20236;-79
2021/04/30 07:33:05;;;;;;;;;;;;;;;15.77;54.34;99335.70;1792200;78;20197;-81
2021/04/30 07:35:34;;;;;;;;;;;;;;;15.88;54.00;99336.05;1791047;78;20232;-83
2021/04/30 07:38:00;;;;;;;;;;;;;;;15.96;53.76;99343.82;1800207;78;21253;-80
2021/04/30 07:40:26;;;;;;;;;;;;;;;15.94;53.90;99352.52;1789324;78;20342;-79
2021/04/30 07:42:55;;;;;;;;;;;;;;;15.95;54.50;99340.84;1788413;78;20172;-80
2021/04/30 07:45:21;;;;;;;;;;;;;;;16.14;54.23;99331.96;1788800;78;21030;-85
2021/04/30 07:47:46;;;;;;;;;;;;;;;16.36;53.93;99333.47;1791499;78;20196;-81
2021/04/30 07:50:12;;;;;;;;;;;;;;;16.28;54.40;99338.03;1791483;78;21293;-81
2021/04/30 07:52:39;;;;;;;;;;;;;;;16.41;54.43;99333.14;1794491;78;20298;-81
2021/04/30 07:55:07;;;;;;;;;;;;;;;16.19;52.77;99345.14;1792919;78;20259;-79
2021/04/30 07:57:37;;;;;;;;;;;;;;;16.38;52.50;99337.56;1789172;78;20379;-86
2021/04/30 08:00:04;;;;;;;;;;;;;;;16.63;52.62;99330.13;1791674;78;20549;-84
2021/04/30 08:02:30;;;;;;;;;;;;;;;16.44;53.00;99343.38;1792871;79;21776;-79
2021/04/30 08:04:55;;;;;;;;;;;;;;;16.55;51.97;99335.73;1790843;78;20200;-80
2021/04/30 08:07:21;;;;;;;;;;;;;;;16.59;50.68;99348.91;1791208;78;20253;-83
2021/04/30 08:09:48;;;;;;;;;;;;;;;16.62;50.92;99334.62;1788793;78;20194;-81
2021/04/30 08:12:16;;;;;;;;;;;;;;;16.58;51.65;99337.44;1788575;78;20389;-79
2021/04/30 08:14:42;;;;;;;;;;;;;;;16.67;52.22;99337.98;1789522;78;20176;-79
2021/04/30 08:17:07;;;;;;;;;;;;;;;16.84;51.77;99340.43;1792704;78;20306;-83
2021/04/30 08:19:34;;;;;;;;;;;;;;;16.86;50.30;99345.05;1791531;78;20296;-82
2021/04/30 08:22:00;;;;;;;;;;;;;;;16.84;50.16;99344.92;1788380;78;20321;-77
2021/04/30 08:24:26;;;;;;;;;;;;;;;16.77;49.23;99344.98;1789786;78;20221;-79
2021/04/30 08:26:51;;;;;;;;;;;;;;;16.61;49.06;99350.83;1792970;78;21049;-78
2021/04/30 08:29:18;;;;;;;;;;;;;;;16.53;50.00;99356.43;1794671;78;20708;-80
2021/04/30 08:31:44;;;;;;;;;;;;;;;16.30;50.97;99380.45;1792664;78;20219;-81
2021/04/30 08:34:10;;;;;;;;;;;;;;;16.24;50.79;99350.66;1811429;78;20211;-80
2021/04/30 08:36:36;;;;;;;;;;;;;;;16.30;49.88;99365.27;1771267;78;71139;-82
2021/04/30 08:39:33;;;;;;;;;;;;;;;16.37;50.10;99363.89;1706052;79;207459;-77
2021/04/30 08:42:41;;;;;;;13.10;7.62;;;;;;;16.03;48.61;99383.73;1696397;79;111243;-82
2021/04/30 08:45:11;;;;;;;12.18;6.87;;;;;;;15.93;48.57;99360.22;1660336;85;20965;-80
2021/04/30 08:47:37;;;;;;;14.28;7.12;;;;;;;16.04;48.72;99369.40;1627320;86;21451;-82
2021/04/30 08:50:04;;;;;;;10.50;5.95;;;;;;;15.96;49.23;99369.13;1626210;85;20981;-86
2021/04/30 08:52:30;;;;;;;11.78;6.12;;;;;;;16.18;47.45;99362.98;1651112;85;21034;-83
2021/04/30 08:55:04;;;;;;;12.13;6.42;;;;;;;16.32;45.38;99366.39;1650408;85;20969;-81
2021/04/30 08:57:26;;;;;;;13.13;5.90;;;;;;;16.27;45.51;99360.89;1645413;85;21114;-80
2021/04/30 08:59:56;;;;;;;10.53;6.22;;;;;;;16.28;45.01;99397.98;1645382;85;21135;-80
2021/04/30 09:02:26;;;;;;;8.90;5.60;;;;;;;16.46;45.30;99363.95;1648280;85;21719;-82
2021/04/30 09:04:53;;;;;;;11.70;6.75;;;;;;;16.77;45.43;99360.18;1652307;85;21122;-82
2021/04/30 09:07:20;;;;;;;11.38;6.33;;;;;;;16.42;45.49;99372.09;1653782;84;21195;-82
2021/04/30 09:10:06;;;;;;;9.78;6.42;;;;;;;16.39;45.79;99379.18;1652613;85;21238;-81
2021/04/30 09:12:34;;;;;;;9.40;6.40;;;;;;;16.43;46.58;99372.90;1644716;85;21252;-82
2021/04/30 09:15:02;;;;;;;9.65;6.85;;;;;;;16.34;46.61;99374.98;1642125;84;21204;-83
2021/04/30 09:17:28;;;;;;;13.13;7.50;;;;;;;16.35;46.61;99371.30;1647754;85;21215;-81
2021/04/30 09:20:02;;;;;;;10.13;6.78;;;;;;;16.41;46.83;99373.11;1624723;85;21248;-84
2021/04/30 09:22:36;;;;;;;13.08;7.62;;;;;;;16.44;47.55;99362.02;1707560;82;72531;-80
2021/04/30 09:25:12;;;;;;;11.38;7.22;;;;;;;16.63;47.70;99375.45;1698931;83;22534;-81
2021/04/30 09:27:55;;;;;;;10.60;6.70;;;;;;;16.44;46.90;99383.34;1670847;83;21642;-82
2021/04/30 09:30:30;;;;;;;10.05;6.70;;;;;;;16.61;47.72;99382.82;1696343;82;21274;-78
2021/04/30 09:33:18;;;;;;;15.38;8.28;;;;;;;16.57;47.85;99394.96;1695700;83;21211;-81
2021/04/30 09:35:51;;;;;;;14.87;8.80;;;;;;;16.47;48.54;99389.58;1695261;84;21208;-82
2021/04/30 09:38:32;;;;;;;9.50;6.85;;;;;;;16.61;48.70;99380.99;1693142;83;22416;-81
2021/04/30 09:41:09;;;;;;;15.08;8.10;;;;;;;16.33;46.86;99394.69;1688084;83;21318;-83
2021/04/30 09:43:51;;;;;;;10.40;6.72;;;;;;;16.45;47.21;99371.66;1682688;84;25437;-82
2021/04/30 09:46:35;;;;;;;14.60;7.05;;;;;;;16.38;47.11;99394.85;1654452;85;21219;-81
2021/04/30 09:49:05;;;;;;;10.68;7.10;;;;;;;16.37;46.63;99393.20;1680014;84;21181;-80
2021/04/30 09:51:51;;;;;;;13.93;7.28;;;;;;;16.63;47.59;99392.77;1684208;84;22141;-84
2021/04/30 09:54:27;;;;;;;10.15;7.30;;;;;;;16.76;48.03;99380.67;1661097;85;21220;-85
2021/04/30 09:57:15;;;;;;;11.25;7.83;;;;;;;17.02;48.21;99389.55;1650126;85;21557;-82
2021/04/30 09:59:43;;;;;;;13.80;9.40;;;;;;;16.84;46.26;99413.77;1625198;87;21767;-83
2021/04/30 10:02:13;;;;;;;15.83;8.95;;;;;;;16.62;47.45;99415.13;1684133;84;21201;-83
2021/04/30 10:04:42;;;;;;;13.55;8.85;;;;;;;16.62;48.08;99418.59;1681665;84;21246;-84
2021/04/30 10:07:10;;;;;;;13.80;9.30;;;;;;;16.60;48.68;99429.19;1683845;84;21471;-83
2021/04/30 10:09:36;;;;;;;17.55;10.63;;;;;;;16.65;48.45;99394.70;1681694;84;21091;-83
2021/04/30 10:12:24;;;;;;;13.28;9.43;;;;;;;16.46;48.71;99417.77;1657602;84;21230;-82
2021/04/30 10:14:51;;;;;;;16.02;9.98;;;;;;;16.47;48.96;99410.09;1661950;85;22322;-82
2021/04/30 10:17:17;;;;;;;14.40;10.50;;;;;;;16.47;49.03;99416.75;1682083;84;22134;-84
2021/04/30 10:19:44;;;;;;;15.98;10.65;;;;;;;16.49;48.26;99407.50;1689692;84;21138;-84
2021/04/30 10:22:20;;;;;;;12.82;8.98;;;;;;;16.50;48.35;99430.46;1683904;84;21204;-84
2021/04/30 10:24:52;;;;;;;15.00;7.37;;;;;;;16.51;47.15;99410.78;1673143;84;21197;-83
2021/04/30 10:27:24;;;;;;;15.68;9.68;;;;;;;16.55;43.24;99415.69;1654788;84;21242;-83
2021/04/30 10:30:17;;;;;;;15.10;10.72;;;;;;;16.78;46.49;99412.45;1689583;84;21422;-83
2021/04/30 10:32:51;;;;;;;15.85;10.85;;;;;;;16.61;46.85;99430.80;1679301;84;21192;-82
2021/04/30 10:35:45;;;;;;;18.48;10.70;;;;;;;16.42;47.22;99414.73;1679194;84;21261;-83
2021/04/30 10:38:15;;;;;;;15.00;10.70;;;;;;;16.27;47.67;99436.83;1674957;84;21237;-80
2021/04/30 10:40:58;;;;;;;15.80;10.85;;;;;;;16.51;47.36;99418.78;1674504;84;21210;-82
2021/04/30 10:43:26;;;;;;;15.68;10.40;;;;;;;16.41;47.63;99429.07;1670813;84;21213;-86
2021/04/30 10:46:17;;;;;;;14.30;9.53;;;;;;;16.61;47.64;99426.80;1680476;84;21595;-82
2021/04/30 10:49:15;;;;;;;15.83;10.40;;;;;;;16.71;46.44;99432.50;1678139;84;21217;-85
2021/04/30 10:51:39;;;;;;;15.73;11.17;;;;;;;16.39;47.55;99435.14;1684378;84;21550;-83
2021/04/30 10:54:30;;;;;;;19.52;10.60;;;;;;;16.35;47.02;99465.89;1683976;84;21225;-85
2021/04/30 10:57:00;;;;;;;15.83;9.80;;;;;;;16.19;47.62;99495.16;1689531;84;21333;-81
2021/04/30 10:59:40;;;;;;;18.98;9.70;;;;;;;16.47;46.30;99444.21;1682154;84;21226;-79
2021/04/30 11:02:31;;;;;;;14.38;9.65;;;;;;;16.43;45.99;99448.32;1644707;85;21645;-80
2021/04/30 11:05:13;;;;;;;18.15;9.18;;;;;;;16.39;45.41;99455.13;1623589;85;21661;-84
2021/04/30 11:07:48;;;;;;;16.23;8.90;;;;;;;16.39;45.49;99453.79;1683840;84;21166;-82
2021/04/30 11:10:34;;;;;;;11.10;8.18;;;;;;;16.20;45.22;99466.13;1681930;84;21503;-84
2021/04/30 11:13:09;;;;;;;11.73;8.13;;;;;;;16.19;44.82;99488.98;1661375;85;22427;-83
2021/04/30 11:15:52;;;;;;;13.32;8.25;;;;;;;16.13;44.84;99498.65;1680329;84;21754;-83
2021/04/30 11:18:27;;;;;;;15.35;8.15;;;;;;;16.15;44.44;99481.41;1676428;84;21626;-81
2021/04/30 11:21:10;;;;;;;17.90;7.85;;;;;;;16.06;44.67;99465.88;1626301;87;21252;-79
2021/04/30 11:23:47;;;;;;;12.80;8.00;;;;;;;16.05;44.88;99474.39;1677096;84;21212;-82
2021/04/30 11:26:15;;;;;;;13.93;8.40;;;;;;;16.07;45.00;99478.17;1684623;84;21469;-83
2021/04/30 11:28:47;;;;;;;13.62;8.10;;;;;;;16.09;44.95;99475.59;1690512;84;22310;-81
2021/04/30 11:31:16;;;;;;;12.25;8.35;;;;;;;16.37;44.29;99526.44;1683326;84;21169;-82
2021/04/30 11:34:15;;;;;;;10.68;7.33;;;;;;;16.06;44.12;99481.33;1679104;84;21230;-83
2021/04/30 11:36:42;;;;;;;12.55;7.97;;;;;;;16.05;44.31;99507.67;1686586;84;21111;-81
2021/04/30 11:39:40;;;;;;;18.57;8.03;;;;;;;16.14;44.51;99496.27;1679884;84;21758;-81
2021/04/30 11:42:04;;;;;;;11.20;7.50;;;;;;;16.13;44.57;99506.64;1682698;84;21237;-82
2021/04/30 11:44:36;;;;;;;13.98;7.53;;;;;;;16.62;43.94;99475.09;1693764;84;21177;-80
2021/04/30 11:47:04;;;;;;;10.82;8.28;;;;;;;16.66;43.69;99496.31;1684399;84;21679;-82
2021/04/30 11:49:36;;;;;;;11.80;8.40;;;;;;;16.49;43.27;99513.30;1686204;84;21071;-80
2021/04/30 11:52:03;;;;;;;12.80;8.35;;;;;;;16.08;43.17;99513.92;1661807;84;21622;-79
2021/04/30 11:54:35;;;;;;;11.03;7.60;;;;;;;16.29;43.13;99509.36;1648846;84;21248;-80
2021/04/30 11:57:08;;;;;;;16.05;7.95;;;;;;;16.30;43.02;99498.49;1671034;84;21700;-80
2021/04/30 11:59:41;;;;;;;13.53;8.30;;;;;;;16.39;42.93;99494.25;1665592;84;21210;-82
2021/04/30 12:02:08;;;;;;;11.20;7.90;;;;;;;16.46;43.00;99496.39;1679584;83;21681;-82
2021/04/30 12:04:40;;;;;;;11.65;8.38;;;;;;;16.55;42.70;99512.98;1676026;84;21202;-81
2021/04/30 12:07:07;;;;;;;11.25;8.30;;;;;;;16.27;42.99;99547.39;1683898;84;21840;-83
2021/04/30 12:09:34;;;;;;;12.85;8.30;;;;;;;16.35;43.41;99517.84;1665169;84;21282;-82
2021/04/30 12:12:24;;;;;;;13.45;8.30;;;;;;;16.47;43.34;99524.17;1685860;84;22217;-83
2021/04/30 12:15:07;;;;;;;11.03;8.70;;;;;;;16.54;42.94;99516.66;1684578;84;22467;-82
2021/04/30 12:17:38;;;;;;;12.68;8.43;;;;;;;16.57;43.83;99520.23;1684724;83;21208;-79
2021/04/30 12:20:12;;;;;;;11.97;9.03;;;;;;;16.62;43.54;99528.41;1693081;83;21189;-82
2021/04/30 12:22:52;;;;;;;14.18;9.40;;;;;;;16.25;44.04;99533.44;1673683;82;21202;-83
2021/04/30 12:25:29;;;;;;;13.13;8.58;;;;;;;16.09;44.59;99523.53;1678341;84;21247;-82
2021/04/30 12:28:13;;;;;;;12.90;9.48;;;;;;;16.32;44.80;99532.92;1687322;84;21304;-83
2021/04/30 12:30:41;;;;;;;13.45;9.75;;;;;;;16.02;45.13;99540.05;1683620;83;21343;-79